CYYZ/YYZ METAR and TAF weather

Enter ICAO airport designator
Station Type Date Time Source
CYYZ METAR 2018/01/17 06:00 UTC NOAA

CYYZ 170600Z 21005KT 6SM -SN SCT025 OVC033 M10/M13 A3035 RMK SC4SC4 SLP291


Station Type Date Time Source
CYYZ Decoded METAR 2018/01/17 06:00 UTC NOAA

Toronto Pearson Int'L. Ont., Canada (CYYZ) 43-40N 079-38W 173M
Jan 17, 2018 - 01:00 AM EST / 2018.01.17 0600 UTC
Wind: from the SSW (210 degrees) at 6 MPH (5 KT):0
Visibility: 6 mile(s):0
Sky conditions: overcast
Weather: light snow
Temperature: 14 F (-10 C)
Windchill: 5 F (-15 C):1
Dew Point: 8 F (-13 C)
Relative Humidity: 78%
Pressure (altimeter): 30.35 in. Hg (1027 hPa)
ob: CYYZ 170600Z 21005KT 6SM -SN SCT025 OVC033 M10/M13 A3035 RMK SC4SC4 SLP291
cycle: 6

Station Type Date Time Source
CYYZ TAF 2018/01/17 06:39 UTC NOAA

TAF CYYZ 170538Z 1706/1812 20007KT P6SM FEW020 OVC050
TEMPO 1706/1708 5SM -SHSN BKN020 OVC050
FM170800 25008KT P6SM BKN040
FM171200 25010KT P6SM SCT040
FM171700 24012G22KT P6SM SCT030
BECMG 1722/1724 24012KT
RMK NXT FCST BY 170900Z


Example: see airport list